createdAt,value
2022-11-21T00:02:13.295Z,25.53
2022-11-21T00:07:20.599Z,25.45
2022-11-21T00:12:27.843Z,25.33
2022-11-21T00:17:35.026Z,25.27
2022-11-21T00:22:42.283Z,25.17
2022-11-21T00:27:49.602Z,25.07
2022-11-21T00:32:56.786Z,24.98
2022-11-21T00:38:04.037Z,24.84
2022-11-21T00:43:11.282Z,24.70
2022-11-21T00:48:18.515Z,24.59
2022-11-21T00:53:25.752Z,24.46
2022-11-21T00:58:32.955Z,24.41
2022-11-21T01:03:40.150Z,24.29
2022-11-21T01:08:47.311Z,24.20
2022-11-21T01:13:54.522Z,24.16
2022-11-21T01:19:01.729Z,24.04
2022-11-21T01:24:08.890Z,23.94
2022-11-21T01:29:16.115Z,23.87
2022-11-21T01:34:23.296Z,23.80
2022-11-21T01:39:30.522Z,23.73
2022-11-21T01:44:37.724Z,23.68
2022-11-21T01:49:45.031Z,23.58
2022-11-21T01:54:52.247Z,23.47
2022-11-21T01:59:59.459Z,23.39
2022-11-21T02:05:06.623Z,23.35
2022-11-21T02:10:13.833Z,23.35
2022-11-21T02:15:21.126Z,23.25
2022-11-21T02:20:28.290Z,23.20
2022-11-21T02:25:35.500Z,23.14
2022-11-21T02:30:42.766Z,23.12
2022-11-21T02:35:49.959Z,23.02
2022-11-21T02:40:57.154Z,23.02
2022-11-21T02:46:04.401Z,22.99
2022-11-21T02:51:11.608Z,22.85
2022-11-21T02:56:18.863Z,22.84
2022-11-21T03:01:26.192Z,22.72
2022-11-21T03:06:33.341Z,22.64
2022-11-21T03:11:40.581Z,22.49
2022-11-21T03:16:47.811Z,22.50
2022-11-21T03:21:54.993Z,22.54
2022-11-21T03:27:02.197Z,22.56
2022-11-21T03:32:09.395Z,22.60
2022-11-21T03:37:16.515Z,22.58
2022-11-21T03:42:23.708Z,22.54
2022-11-21T03:47:30.940Z,22.54
2022-11-21T03:52:38.140Z,22.52
2022-11-21T03:57:45.328Z,22.49
2022-11-21T04:02:53.891Z,22.42
2022-11-21T04:08:01.218Z,22.36
2022-11-21T04:13:08.621Z,22.27
2022-11-21T04:18:15.894Z,22.24
2022-11-21T04:23:23.123Z,22.20
2022-11-21T04:28:30.402Z,22.16
2022-11-21T04:33:37.656Z,22.11
2022-11-21T04:38:44.929Z,22.08
2022-11-21T04:43:52.170Z,22.05
2022-11-21T04:48:59.429Z,22.07
2022-11-21T04:54:06.606Z,22.05
2022-11-21T04:59:13.836Z,22.07
2022-11-21T05:04:21.147Z,22.07
2022-11-21T05:09:28.358Z,22.07
2022-11-21T05:14:35.614Z,22.07
2022-11-21T05:19:43.035Z,22.07
2022-11-21T05:24:50.267Z,22.08
2022-11-21T05:29:57.468Z,22.05
2022-11-21T05:35:04.707Z,22.04
2022-11-21T05:40:11.894Z,22.05
2022-11-21T05:45:19.083Z,21.97
2022-11-21T05:50:26.356Z,21.92
2022-11-21T05:55:33.622Z,21.87
2022-11-21T06:00:40.884Z,21.84
2022-11-21T06:05:48.156Z,21.87
2022-11-21T06:10:55.341Z,21.81
2022-11-21T06:16:02.544Z,21.80
2022-11-21T06:21:09.736Z,21.77
2022-11-21T06:26:17.032Z,21.69
2022-11-21T06:31:24.261Z,21.69
2022-11-21T06:36:31.455Z,21.68
2022-11-21T06:41:38.634Z,21.65
2022-11-21T06:46:50.663Z,21.63
2022-11-21T06:51:53.083Z,21.65
2022-11-21T06:57:00.226Z,21.64
2022-11-21T07:02:07.463Z,21.62
2022-11-21T07:07:14.793Z,21.59
2022-11-21T07:12:21.939Z,21.61
2022-11-21T07:17:29.077Z,21.60
2022-11-21T07:22:36.306Z,21.57
2022-11-21T07:27:43.448Z,21.54
2022-11-21T07:32:50.667Z,21.55
2022-11-21T07:37:57.927Z,21.60
2022-11-21T07:43:10.520Z,21.62
2022-11-21T07:48:12.341Z,21.75
2022-11-21T07:53:19.607Z,21.88
2022-11-21T07:58:26.816Z,22.08
2022-11-21T08:03:34.057Z,22.19
2022-11-21T08:08:41.263Z,22.36
2022-11-21T08:13:48.435Z,22.49
2022-11-21T08:18:55.634Z,22.62
2022-11-21T08:24:02.808Z,22.73
2022-11-21T08:29:09.936Z,22.83
2022-11-21T08:34:17.185Z,22.83
2022-11-21T08:39:24.467Z,22.94
2022-11-21T08:44:31.875Z,22.81
2022-11-21T08:49:38.817Z,22.73
2022-11-21T08:54:46.163Z,22.71
2022-11-21T08:59:53.379Z,22.70
2022-11-21T09:05:00.569Z,22.75
2022-11-21T09:10:07.846Z,22.83
2022-11-21T09:15:15.240Z,22.91
2022-11-21T09:20:22.688Z,22.93
2022-11-21T09:25:29.770Z,22.96
2022-11-21T09:30:37.148Z,22.95
2022-11-21T09:35:44.324Z,22.94
2022-11-21T09:40:51.699Z,22.93
2022-11-21T09:45:59.490Z,22.90
2022-11-21T09:51:06.812Z,22.84
2022-11-21T09:56:14.162Z,22.82
2022-11-21T10:01:21.428Z,22.76
2022-11-21T10:06:28.550Z,22.68
2022-11-21T10:11:35.766Z,22.65
2022-11-21T10:16:42.991Z,22.60
2022-11-21T10:21:50.279Z,22.55
2022-11-21T10:26:57.612Z,22.48
2022-11-21T10:32:04.817Z,22.46
2022-11-21T10:37:12.083Z,22.37
2022-11-21T10:42:24.360Z,22.31
2022-11-21T10:47:26.400Z,22.26
2022-11-21T10:52:33.733Z,22.18
2022-11-21T10:57:40.976Z,22.13
2022-11-21T11:02:48.129Z,22.06
2022-11-21T11:07:55.298Z,22.05
2022-11-21T11:13:08.713Z,22.01
2022-11-21T11:18:09.952Z,22.01
2022-11-21T11:23:16.918Z,21.98
2022-11-21T11:28:24.183Z,21.96
2022-11-21T11:33:31.308Z,21.98
2022-11-21T11:38:38.559Z,22.06
2022-11-21T11:43:47.150Z,22.08
2022-11-21T11:54:01.323Z,22.13
2022-11-21T11:59:07.464Z,22.12
2022-11-21T12:04:14.605Z,22.13
2022-11-21T12:09:21.861Z,22.13
2022-11-21T12:14:29.058Z,22.09
2022-11-21T12:19:36.250Z,22.09
2022-11-21T12:24:43.660Z,22.07
2022-11-21T12:29:50.878Z,21.99
2022-11-21T12:34:58.046Z,21.96
2022-11-21T12:40:05.229Z,21.94
2022-11-21T12:45:12.438Z,21.85
2022-11-21T12:50:19.604Z,21.84
2022-11-21T12:55:30.701Z,21.79
2022-11-21T13:00:34.310Z,21.73
2022-11-21T13:05:41.505Z,21.72
2022-11-21T13:10:48.738Z,21.72
2022-11-21T13:15:55.947Z,21.68
2022-11-21T13:21:03.182Z,21.67
2022-11-21T13:26:10.378Z,21.75
2022-11-21T13:31:17.619Z,21.77
2022-11-21T13:36:24.865Z,21.81
2022-11-21T13:41:32.078Z,21.83
2022-11-21T13:46:39.488Z,21.84
2022-11-21T13:51:46.781Z,21.87
2022-11-21T13:56:54.068Z,21.84
2022-11-21T14:02:01.322Z,21.83
2022-11-21T14:07:08.593Z,21.83
2022-11-21T14:12:15.630Z,21.78
2022-11-21T14:17:22.780Z,21.75
2022-11-21T14:22:34.783Z,21.76
2022-11-21T14:27:40.906Z,21.69
2022-11-21T14:32:48.433Z,21.63
2022-11-21T14:37:51.546Z,21.62
2022-11-21T14:42:58.715Z,21.57
2022-11-21T14:48:05.888Z,21.52
2022-11-21T14:53:13.131Z,21.52
2022-11-21T14:58:20.466Z,21.48
2022-11-21T15:03:27.737Z,21.50
2022-11-21T15:14:12.230Z,21.57
2022-11-21T15:18:49.427Z,21.58
2022-11-21T15:23:56.657Z,21.58
2022-11-21T15:29:03.933Z,21.61
2022-11-21T15:39:18.408Z,21.61
2022-11-21T15:44:25.579Z,21.58
2022-11-21T15:49:33.596Z,21.59
2022-11-21T15:54:39.967Z,21.57
2022-11-21T15:59:47.173Z,21.55
2022-11-21T16:04:54.413Z,21.52
2022-11-21T16:10:01.593Z,21.48
2022-11-21T16:15:08.798Z,21.45
2022-11-21T16:20:16.056Z,21.39
2022-11-21T16:25:23.287Z,21.36
2022-11-21T16:30:30.505Z,21.33
2022-11-21T16:35:37.896Z,21.34
2022-11-21T16:40:44.966Z,21.29
2022-11-21T16:45:52.416Z,21.33
2022-11-21T16:50:59.794Z,21.39
2022-11-21T16:56:06.990Z,21.42
2022-11-21T17:01:14.535Z,21.46
2022-11-21T17:06:22.563Z,21.48
2022-11-21T17:11:30.041Z,21.50
2022-11-21T17:16:37.793Z,21.48
2022-11-21T17:21:45.494Z,21.48
2022-11-21T17:26:53.082Z,21.44
2022-11-21T17:32:00.694Z,21.43
2022-11-21T17:37:08.337Z,21.43
2022-11-21T17:42:15.618Z,21.45
2022-11-21T17:47:23.072Z,21.53
2022-11-21T17:52:30.698Z,21.64
2022-11-21T17:57:38.148Z,21.76
2022-11-21T18:02:45.537Z,21.84
2022-11-21T18:07:52.943Z,21.92
2022-11-21T18:13:00.496Z,22.01
2022-11-21T18:18:08.095Z,22.11
2022-11-21T18:23:15.746Z,22.19
2022-11-21T18:28:23.064Z,22.25
2022-11-21T18:33:30.479Z,22.33
2022-11-21T18:39:02.156Z,22.41
2022-11-21T18:43:47.025Z,22.47
2022-11-21T18:49:04.872Z,22.52
2022-11-21T18:54:01.324Z,22.57
2022-11-21T18:59:08.913Z,22.64
2022-11-21T19:04:16.525Z,22.68
2022-11-21T19:09:29.405Z,22.71
2022-11-21T19:14:31.982Z,22.77
2022-11-21T19:19:39.571Z,22.84
2022-11-21T19:24:47.170Z,22.87
2022-11-21T19:29:54.805Z,22.95
2022-11-21T19:35:02.516Z,22.97
2022-11-21T19:40:10.160Z,23.09
2022-11-21T19:45:17.744Z,23.27
2022-11-21T19:50:25.363Z,23.38
2022-11-21T19:55:33.103Z,23.49
2022-11-21T20:00:40.617Z,23.59
2022-11-21T20:05:48.202Z,23.72
2022-11-21T20:10:55.849Z,23.82
2022-11-21T20:16:03.536Z,23.88
2022-11-21T20:21:10.879Z,23.91
2022-11-21T20:26:18.381Z,24.02
2022-11-21T20:31:25.979Z,24.04
2022-11-21T20:36:33.693Z,24.12
2022-11-21T20:41:41.328Z,24.19
2022-11-21T20:46:48.920Z,24.21
2022-11-21T20:57:03.773Z,24.28
2022-11-21T21:02:11.507Z,24.26
2022-11-21T21:07:18.807Z,24.28
2022-11-21T21:12:26.027Z,24.26
2022-11-21T21:17:33.177Z,24.24
2022-11-21T21:22:40.361Z,24.27
2022-11-21T21:27:47.620Z,24.28
2022-11-21T21:32:54.773Z,24.34
2022-11-21T21:38:07.595Z,24.45
2022-11-21T21:43:09.147Z,24.51
2022-11-21T21:48:16.305Z,24.55
2022-11-21T21:53:23.506Z,24.57
2022-11-21T21:58:30.663Z,24.68
2022-11-21T22:03:37.801Z,24.65
2022-11-21T22:08:45.018Z,24.69
2022-11-21T22:13:52.319Z,24.75
2022-11-21T22:18:59.530Z,24.76
2022-11-21T22:24:24.779Z,24.85
2022-11-21T22:29:13.965Z,24.83
2022-11-21T22:34:21.088Z,24.89
2022-11-21T22:39:28.357Z,24.92
2022-11-21T22:44:35.585Z,25.00
2022-11-21T22:49:42.792Z,25.10
2022-11-21T22:54:49.954Z,25.23
2022-11-21T22:59:57.187Z,25.33
2022-11-21T23:05:04.414Z,25.39
2022-11-21T23:10:11.716Z,25.43
2022-11-21T23:15:18.947Z,25.56
2022-11-21T23:20:26.097Z,25.57
2022-11-21T23:25:33.309Z,25.60
2022-11-21T23:30:40.517Z,25.61
2022-11-21T23:35:47.703Z,25.66
2022-11-21T23:40:54.907Z,25.65
2022-11-21T23:46:02.082Z,25.65
2022-11-21T23:51:09.211Z,25.74
2022-11-21T23:56:16.368Z,25.74
